Indianapolis, Indiana
Current Conditions -  °F | °C
As of 5:54 PM on Sunday 21 Dec 2014 (Local Time) from KIND Reporting Station
Broken Clouds Broken Clouds  
Wind Chill: 27°   Ceiling: 25000
Heat Index: 32°   Visibility: 8mi
Dew Point: 26°   Wind: 5mph
Humidity: 79%   Direction: 110°ESE
Pressure: 30.13"   Gusts: NA
Location:  39.77°N, 86.15°W
Report Text: KIND 212254Z 11004KT 8SM BKN250 00/M03 A3013 RMK AO2 SLP213 T00001033
Loading
Personal Weather Stations






























Interactive Weather Map New forecast layout! Learn more

10-Day Weather Forecast

Advertisements
Track Severe Weather on mobile